Time;durP1;ratioP1;P1;durP2;ratioP2;P2;SDS_P1;SDS_P2;PMS_P1;PMS_P2;Temp;Humidity;BMP_temperature;BMP_pressure;BME280_temperature;BME280_humidity;BME280_pressure;Samples;Min_cycle;Max_cycle;Signal;HPM_P1;HPM_P2
2022/10/04 00:00:41;;;;;;;6.43;2.60;;;12.80;99.90;;;;;;2055552;28;20561;-69
2022/10/04 00:01:43;;;;;;;9.88;3.03;;;12.80;99.90;;;;;;2055197;28;20045;-70
2022/10/04 00:02:45;;;;;;;7.07;2.70;;;12.80;99.90;;;;;;2055497;28;20038;-68
2022/10/04 00:03:50;;;;;;;5.32;2.55;;;12.80;99.90;;;;;;2055263;28;20103;-70
2022/10/04 00:05:02;;;;;;;7.32;2.67;;;12.80;99.90;;;;;;2055306;28;20409;-69
2022/10/04 00:06:04;;;;;;;7.85;2.80;;;12.80;99.90;;;;;;2055587;28;20043;-69
2022/10/04 00:07:10;;;;;;;8.60;3.10;;;12.80;99.90;;;;;;2055198;28;20030;-70
2022/10/04 00:08:43;;;;;;;8.90;3.00;;;12.90;99.90;;;;;;2055261;28;20049;-69
2022/10/04 00:09:58;;;;;;;11.32;2.95;;;12.80;99.90;;;;;;2041322;29;20035;-70
2022/10/04 00:11:18;;;;;;;7.03;2.78;;;12.80;99.90;;;;;;2048837;28;20039;-70
2022/10/04 00:12:44;;;;;;;6.85;2.70;;;12.80;99.90;;;;;;2055165;28;20022;-68
2022/10/04 00:13:51;;;;;;;9.85;2.85;;;12.80;99.90;;;;;;2050037;28;20063;-69
2022/10/04 00:14:56;;;;;;;7.00;2.58;;;12.80;99.90;;;;;;2055491;28;20022;-69
2022/10/04 00:15:57;;;;;;;6.78;2.80;;;12.90;99.90;;;;;;2046827;29;20501;-68
2022/10/04 00:16:59;;;;;;;8.02;2.60;;;12.80;99.90;;;;;;2046685;28;20038;-70
2022/10/04 00:18:15;;;;;;;8.77;2.80;;;12.80;99.90;;;;;;2055254;28;20839;-70
2022/10/04 00:19:19;;;;;;;10.60;3.05;;;12.80;99.90;;;;;;2055324;28;20509;-71
2022/10/04 00:20:49;;;;;;;11.65;2.70;;;12.80;99.90;;;;;;2046123;28;20070;-70
2022/10/04 00:21:54;;;;;;;9.93;2.90;;;12.80;99.90;;;;;;2047575;28;20025;-70
2022/10/04 00:23:22;;;;;;;7.95;2.63;;;12.80;99.90;;;;;;2056821;28;20031;-71
2022/10/04 00:24:25;;;;;;;9.35;2.95;;;12.80;99.90;;;;;;2056683;28;20055;-69
2022/10/04 00:25:34;;;;;;;8.68;2.70;;;12.80;99.90;;;;;;2040494;29;20075;-70
2022/10/04 00:26:34;;;;;;;7.15;2.70;;;12.80;99.90;;;;;;2049611;28;20058;-69
2022/10/04 00:27:37;;;;;;;7.03;2.60;;;12.80;99.90;;;;;;2048155;29;20023;-70
2022/10/04 00:28:38;;;;;;;7.43;2.80;;;12.80;99.90;;;;;;2056708;28;20038;-70
2022/10/04 00:29:43;;;;;;;8.77;2.60;;;12.80;99.90;;;;;;2064332;28;20058;-70
2022/10/04 00:30:44;;;;;;;4.70;2.80;;;12.80;99.90;;;;;;2056942;28;20082;-71
2022/10/04 00:32:06;;;;;;;7.68;2.75;;;12.80;99.90;;;;;;2056803;28;20047;-70
2022/10/04 00:33:07;;;;;;;7.75;2.63;;;12.80;99.90;;;;;;2057034;28;20038;-70
2022/10/04 00:34:08;;;;;;;4.95;2.40;;;12.80;99.90;;;;;;2056729;28;20038;-69
2022/10/04 00:35:24;;;;;;;7.85;2.80;;;12.80;99.90;;;;;;2057250;28;20081;-69
2022/10/04 00:36:25;;;;;;;8.15;2.95;;;12.80;99.90;;;;;;2056880;28;20045;-70
2022/10/04 00:37:26;;;;;;;7.80;2.47;;;12.80;99.90;;;;;;2056375;28;20389;-71
2022/10/04 00:38:28;;;;;;;8.93;2.50;;;12.80;99.90;;;;;;2064218;28;20041;-70
2022/10/04 00:39:31;;;;;;;5.38;2.42;;;12.80;99.90;;;;;;2056194;28;20050;-71
2022/10/04 00:40:54;;;;;;;5.85;2.50;;;12.80;99.90;;;;;;2048610;28;20031;-69
2022/10/04 00:42:45;;;;;;;6.72;2.60;;;12.80;99.90;;;;;;2064285;28;20077;-69
2022/10/04 00:43:47;;;;;;;6.13;2.42;;;12.80;99.90;;;;;;2025432;29;20079;-70
2022/10/04 00:44:58;;;;;;;5.72;2.53;;;12.80;99.90;;;;;;2023831;29;20100;-71
2022/10/04 00:46:13;;;;;;;5.20;2.17;;;12.80;99.90;;;;;;2025239;29;20040;-70
2022/10/04 00:47:20;;;;;;;10.02;2.65;;;12.80;99.90;;;;;;2049827;28;20027;-70
2022/10/04 00:48:36;;;;;;;8.65;2.30;;;12.80;99.90;;;;;;2056762;28;20039;-71
2022/10/04 00:49:41;;;;;;;6.47;2.47;;;12.80;99.90;;;;;;2056686;28;20022;-70
2022/10/04 00:50:53;;;;;;;5.47;2.50;;;12.80;99.90;;;;;;2056914;28;20371;-70
2022/10/04 00:52:00;;;;;;;6.45;2.60;;;12.80;99.90;;;;;;2056901;28;20033;-69
2022/10/04 00:53:03;;;;;;;6.28;2.47;;;12.90;99.90;;;;;;2048088;29;20031;-69
2022/10/04 00:54:19;;;;;;;5.78;2.50;;;12.80;99.90;;;;;;2048082;28;20031;-69
2022/10/04 00:55:33;;;;;;;6.82;2.42;;;12.80;99.90;;;;;;2048183;29;20027;-69
2022/10/04 00:56:52;;;;;;;9.60;2.35;;;12.80;99.90;;;;;;2050133;28;20052;-69
2022/10/04 00:57:58;;;;;;;6.20;2.47;;;12.90;99.90;;;;;;2047920;29;20090;-69
2022/10/04 00:59:08;;;;;;;9.85;2.63;;;12.90;99.90;;;;;;2049024;28;20023;-68
2022/10/04 01:00:15;;;;;;;6.72;2.42;;;12.90;99.90;;;;;;2057736;28;20093;-69
2022/10/04 01:01:22;;;;;;;6.88;2.70;;;12.90;99.90;;;;;;2059737;28;20054;-69
2022/10/04 01:02:43;;;;;;;9.48;3.22;;;12.90;99.90;;;;;;2048645;29;20046;-69
2022/10/04 01:03:44;;;;;;;8.00;2.80;;;12.90;99.90;;;;;;2051075;28;20600;-69
2022/10/04 01:05:02;;;;;;;7.50;2.75;;;12.90;99.90;;;;;;2056815;28;20039;-68
2022/10/04 01:06:05;;;;;;;8.98;2.40;;;12.80;99.90;;;;;;2048464;29;20086;-69
2022/10/04 01:07:08;;;;;;;6.38;2.40;;;12.80;99.90;;;;;;2048175;28;20027;-68
2022/10/04 01:08:15;;;;;;;8.15;2.60;;;12.90;99.90;;;;;;2056671;28;20027;-68
2022/10/04 01:09:17;;;;;;;11.38;3.15;;;12.90;99.90;;;;;;2051056;28;20035;-69
2022/10/04 01:10:25;;;;;;;6.88;2.47;;;12.80;99.90;;;;;;2055385;28;20027;-69
2022/10/04 01:11:33;;;;;;;6.53;2.75;;;12.80;99.90;;;;;;2056790;28;20027;-69
2022/10/04 01:12:59;;;;;;;9.40;2.60;;;12.80;99.90;;;;;;2056363;28;20117;-69
2022/10/04 01:14:23;;;;;;;6.50;2.65;;;12.80;99.90;;;;;;2056863;28;20689;-69
2022/10/04 01:15:58;;;;;;;7.68;2.67;;;12.80;99.90;;;;;;2056594;28;20026;-68
2022/10/04 01:16:58;;;;;;;7.28;2.63;;;12.80;99.90;;;;;;2056317;28;20034;-69
2022/10/04 01:18:13;;;;;;;7.13;2.40;;;12.70;99.90;;;;;;2056749;28;20409;-69
2022/10/04 01:19:23;;;;;;;8.98;2.80;;;12.80;99.90;;;;;;2057190;28;20046;-69
2022/10/04 01:20:46;;;;;;;6.07;2.70;;;12.70;99.90;;;;;;2064090;28;20031;-70
2022/10/04 01:22:07;;;;;;;6.78;2.60;;;12.80;99.90;;;;;;2056902;28;20023;-69
2022/10/04 01:23:09;;;;;;;;;;;12.70;99.90;;;;;;2036083;29;20043;-69
2022/10/04 01:24:09;;;;;;;7.95;2.60;;;12.70;99.90;;;;;;2049187;29;20266;-70
2022/10/04 01:25:30;;;;;;;6.63;2.60;;;12.70;99.90;;;;;;2058011;28;20065;-73
2022/10/04 01:26:37;;;;;;;9.10;2.75;;;12.70;99.90;;;;;;2057659;28;20044;-70
2022/10/04 01:27:38;;;;;;;9.38;2.70;;;12.70;99.90;;;;;;2057763;28;20278;-71
2022/10/04 01:28:39;;;;;;;8.52;2.70;;;12.70;99.90;;;;;;2059147;28;20026;-69
2022/10/04 01:29:40;;;;;;;11.25;3.22;;;12.70;99.90;;;;;;2057541;28;20031;-69
2022/10/04 01:30:42;;;;;;;7.10;2.35;;;12.70;99.90;;;;;;2057558;28;20023;-68
2022/10/04 01:31:48;;;;;;;7.80;2.58;;;12.70;99.90;;;;;;2056335;28;20531;-68
2022/10/04 01:32:49;;;;;;;6.53;2.55;;;12.70;99.90;;;;;;2055707;28;20046;-68
2022/10/04 01:33:50;;;;;;;9.77;2.70;;;12.70;99.90;;;;;;2056801;28;20022;-69
2022/10/04 01:34:51;;;;;;;9.32;3.00;;;12.70;99.90;;;;;;2048032;29;20031;-69
2022/10/04 01:35:52;;;;;;;8.10;2.42;;;12.70;99.90;;;;;;2047847;29;20513;-69
2022/10/04 01:36:56;;;;;;;8.85;2.55;;;12.70;99.90;;;;;;2056029;28;20035;-70
2022/10/04 01:37:57;;;;;;;11.50;2.67;;;12.70;99.90;;;;;;2047952;29;20477;-70
2022/10/04 01:38:59;;;;;;;6.82;2.80;;;12.70;99.90;;;;;;2047820;29;20028;-70
2022/10/04 01:40:00;;;;;;;6.10;2.40;;;12.70;99.90;;;;;;2056698;28;20033;-68
2022/10/04 01:41:03;;;;;;;9.68;2.53;;;12.70;99.90;;;;;;2056657;28;20136;-69
2022/10/04 01:42:04;;;;;;;9.50;2.95;;;12.70;99.90;;;;;;2056383;28;20525;-69
2022/10/04 01:43:09;;;;;;;12.63;3.08;;;12.70;99.90;;;;;;2056447;28;20074;-70
2022/10/04 01:44:18;;;;;;;7.93;2.67;;;12.70;99.90;;;;;;2056788;28;20508;-69
2022/10/04 01:45:33;;;;;;;7.20;2.55;;;12.70;99.90;;;;;;2048028;29;20035;-69
2022/10/04 01:46:36;;;;;;;6.82;2.50;;;12.60;99.90;;;;;;2049692;28;20421;-70
2022/10/04 01:47:42;;;;;;;11.38;2.65;;;12.70;99.90;;;;;;2055932;28;20027;-68
2022/10/04 01:48:44;;;;;;;10.13;2.65;;;12.70;99.90;;;;;;2056486;28;20035;-68
2022/10/04 01:49:47;;;;;;;7.57;2.50;;;12.70;99.90;;;;;;2056242;28;20489;-69
2022/10/04 01:51:15;;;;;;;7.32;2.60;;;12.60;99.90;;;;;;2056250;28;20027;-69
2022/10/04 01:52:29;;;;;;;7.63;2.60;;;12.60;99.90;;;;;;2056221;28;20027;-69
2022/10/04 01:53:41;;;;;;;7.28;2.50;;;12.70;99.90;;;;;;2048358;29;20039;-70
2022/10/04 01:54:46;;;;;;;9.63;2.70;;;12.70;99.90;;;;;;2048294;29;20051;-68
2022/10/04 01:55:51;;;;;;;8.85;2.70;;;12.70;99.90;;;;;;2048301;29;20027;-69
2022/10/04 01:57:17;;;;;;;10.48;3.00;;;12.70;99.90;;;;;;2048133;29;20489;-70
2022/10/04 01:58:23;;;;;;;7.25;2.50;;;12.70;99.90;;;;;;2039980;29;20039;-69
2022/10/04 01:59:30;;;;;;;9.23;2.70;;;12.60;99.90;;;;;;2032847;29;20035;-69
2022/10/04 02:00:31;;;;;;;9.20;2.90;;;12.70;99.90;;;;;;2036147;29;20059;-69
2022/10/04 02:01:38;;;;;;;10.32;2.80;;;12.70;99.90;;;;;;2039901;29;20439;-69
2022/10/04 02:02:50;;;;;;;11.52;3.00;;;12.70;99.90;;;;;;2048866;28;20032;-68
2022/10/04 02:04:04;;;;;;;7.38;2.60;;;12.70;99.90;;;;;;2047767;29;20066;-70
2022/10/04 02:05:10;;;;;;;8.57;2.50;;;12.60;99.90;;;;;;2047662;29;20042;-68
2022/10/04 02:06:12;;;;;;;9.20;3.10;;;12.60;99.90;;;;;;2048379;28;20035;-69
2022/10/04 02:07:14;;;;;;;8.95;3.05;;;12.60;99.90;;;;;;2055935;28;20050;-69
2022/10/04 02:08:21;;;;;;;10.65;2.95;;;12.60;99.90;;;;;;2055985;28;20438;-70
2022/10/04 02:09:25;;;;;;;11.20;2.95;;;12.60;99.90;;;;;;2056355;28;20122;-68
2022/10/04 02:10:26;;;;;;;7.93;2.80;;;12.60;99.90;;;;;;2056338;28;20015;-68
2022/10/04 02:11:30;;;;;;;11.82;2.80;;;12.60;99.90;;;;;;2056150;28;20035;-68
2022/10/04 02:12:32;;;;;;;13.15;2.88;;;12.60;99.90;;;;;;2047159;29;20800;-69
2022/10/04 02:13:37;;;;;;;7.03;2.40;;;12.60;99.90;;;;;;2047898;28;20513;-69
2022/10/04 02:14:51;;;;;;;7.97;2.63;;;12.60;99.90;;;;;;2056100;28;20632;-68
2022/10/04 02:15:53;;;;;;;8.57;2.80;;;12.60;99.90;;;;;;2048076;29;20054;-68
2022/10/04 02:16:54;;;;;;;8.25;2.65;;;12.60;99.90;;;;;;2048377;28;20046;-69
2022/10/04 02:17:56;;;;;;;8.07;2.50;;;12.60;99.90;;;;;;2048529;29;20023;-69
2022/10/04 02:18:58;;;;;;;6.50;2.63;;;12.60;99.90;;;;;;2040895;29;20031;-69
2022/10/04 02:20:00;;;;;;;8.05;2.80;;;12.60;99.90;;;;;;2048360;29;20122;-69
2022/10/04 02:21:05;;;;;;;6.22;2.65;;;12.60;99.90;;;;;;2048806;29;20046;-69
2022/10/04 02:22:09;;;;;;;8.48;2.60;;;12.50;99.90;;;;;;2047852;29;20150;-68
2022/10/04 02:23:11;;;;;;;10.73;2.85;;;12.60;99.90;;;;;;2047495;28;20035;-68
2022/10/04 02:24:12;;;;;;;6.32;2.70;;;12.60;99.90;;;;;;2047717;28;20119;-69
2022/10/04 02:25:14;;;;;;;8.77;2.65;;;12.50;99.90;;;;;;2048405;29;20393;-68
2022/10/04 02:26:15;;;;;;;6.80;2.50;;;12.50;99.90;;;;;;2048383;29;20110;-69
2022/10/04 02:27:16;;;;;;;7.95;2.88;;;12.60;99.90;;;;;;2048649;28;20054;-68
2022/10/04 02:28:17;;;;;;;7.10;2.60;;;12.50;99.90;;;;;;2048536;29;20066;-68
2022/10/04 02:29:21;;;;;;;9.32;2.80;;;12.50;99.90;;;;;;2056090;28;20538;-69
2022/10/04 02:30:22;;;;;;;8.40;2.83;;;12.50;99.90;;;;;;2055805;28;20038;-69
2022/10/04 02:32:57;;;;;;;7.40;2.50;;;12.50;99.90;;;;;;2048555;29;20051;-69
2022/10/04 02:33:59;;;;;;;7.95;2.78;;;12.50;99.90;;;;;;2047657;29;20101;-68
2022/10/04 02:35:00;;;;;;;7.63;2.80;;;12.50;99.90;;;;;;2047951;29;20028;-68
2022/10/04 02:36:01;;;;;;;7.40;2.63;;;12.50;99.90;;;;;;2048642;28;20371;-68
2022/10/04 02:37:03;;;;;;;6.18;2.40;;;12.50;99.90;;;;;;2048291;28;20038;-68
2022/10/04 02:38:22;;;;;;;8.95;2.90;;;12.60;99.90;;;;;;2047666;29;20739;-70
2022/10/04 02:39:27;;;;;;;8.50;2.67;;;12.50;99.90;;;;;;2045435;29;20094;-68
2022/10/04 02:40:32;;;;;;;6.35;3.00;;;12.50;99.90;;;;;;2040218;29;20031;-68
2022/10/04 02:41:48;;;;;;;5.25;2.60;;;12.50;99.90;;;;;;2048555;29;20023;-69
2022/10/04 02:43:11;;;;;;;5.97;2.50;;;12.50;99.90;;;;;;2048479;29;20035;-69
2022/10/04 02:44:25;;;;;;;9.45;2.72;;;12.50;99.90;;;;;;2049565;28;20043;-69
2022/10/04 02:45:45;;;;;;;7.13;2.70;;;12.50;99.90;;;;;;2052344;29;20046;-69
2022/10/04 02:47:05;;;;;;;10.65;3.10;;;12.50;99.90;;;;;;2051893;29;20030;-69
2022/10/04 02:48:31;;;;;;;7.75;2.90;;;12.50;99.90;;;;;;2048347;29;20126;-68
2022/10/04 02:49:33;;;;;;;7.80;2.75;;;12.50;99.90;;;;;;2048035;29;20031;-69
2022/10/04 02:50:43;;;;;;;7.47;2.70;;;12.50;99.90;;;;;;2048088;28;20151;-72
2022/10/04 02:51:59;;;;;;;8.73;2.97;;;12.50;99.90;;;;;;2047795;29;20086;-69
2022/10/04 02:53:18;;;;;;;8.57;2.80;;;12.50;99.90;;;;;;2052028;28;20043;-68
2022/10/04 02:54:40;;;;;;;8.93;2.97;;;12.50;99.90;;;;;;2055943;28;20761;-68
2022/10/04 02:55:42;;;;;;;6.25;2.60;;;12.50;99.90;;;;;;2056124;28;20753;-68
2022/10/04 02:56:43;;;;;;;8.00;2.85;;;12.50;99.90;;;;;;2039004;29;20020;-68
2022/10/04 02:57:45;;;;;;;6.05;2.75;;;12.50;99.90;;;;;;2039337;28;20031;-69
2022/10/04 02:58:45;;;;;;;10.32;2.90;;;12.50;99.90;;;;;;2055738;28;20042;-69
2022/10/04 02:59:47;;;;;;;7.20;2.67;;;12.50;99.90;;;;;;2047072;28;20108;-71
2022/10/04 03:00:57;;;;;;;9.02;2.70;;;12.50;99.90;;;;;;2039143;29;20031;-68
2022/10/04 03:01:59;;;;;;;9.38;2.85;;;12.50;99.90;;;;;;2048309;28;20032;-69
2022/10/04 03:03:18;;;;;;;11.93;3.00;;;12.50;99.90;;;;;;2055663;28;20027;-68
2022/10/04 03:04:22;;;;;;;10.77;3.05;;;12.50;99.90;;;;;;2055393;28;20031;-69
2022/10/04 03:05:23;;;;;;;7.75;2.70;;;12.50;99.90;;;;;;2047213;29;20693;-69
2022/10/04 03:06:31;;;;;;;7.53;2.78;;;12.50;99.90;;;;;;2047206;28;20027;-70
2022/10/04 03:07:33;;;;;;;5.75;2.65;;;12.50;99.90;;;;;;2055344;28;20019;-68
2022/10/04 03:08:43;;;;;;;10.73;3.35;;;12.50;99.90;;;;;;2055677;28;20477;-69
2022/10/04 03:09:44;;;;;;;8.10;3.10;;;12.50;99.90;;;;;;2049355;28;20107;-69
2022/10/04 03:10:45;;;;;;;8.23;3.22;;;12.50;99.90;;;;;;2054864;28;20030;-69
2022/10/04 03:11:48;;;;;;;8.38;2.90;;;12.50;99.90;;;;;;2055371;28;20117;-69
2022/10/04 03:12:50;;;;;;;9.57;2.95;;;12.50;99.90;;;;;;2046980;29;20115;-68
2022/10/04 03:13:55;;;;;;;8.75;3.10;;;12.50;99.90;;;;;;2047266;28;20070;-69
2022/10/04 03:14:55;;;;;;;9.18;3.42;;;12.50;99.90;;;;;;2055576;28;20031;-68
2022/10/04 03:15:56;;;;;;;8.02;3.22;;;12.50;99.90;;;;;;2055644;28;20062;-69
2022/10/04 03:17:02;;;;;;;11.07;3.10;;;12.50;99.90;;;;;;2055262;28;20033;-69
2022/10/04 03:18:03;;;;;;;11.55;3.53;;;12.50;99.90;;;;;;2055840;28;20027;-68
2022/10/04 03:19:05;;;;;;;9.88;3.47;;;12.40;99.90;;;;;;2056073;28;20242;-68
2022/10/04 03:20:11;;;;;;;11.43;3.22;;;12.40;99.90;;;;;;2046870;29;20031;-69
2022/10/04 03:21:14;;;;;;;9.13;3.22;;;12.40;99.90;;;;;;2055025;28;20027;-68
2022/10/04 03:22:16;;;;;;;8.73;3.08;;;12.40;99.90;;;;;;2054916;28;20042;-68
2022/10/04 03:23:18;;;;;;;9.23;3.22;;;12.40;99.90;;;;;;2047906;29;20039;-68
2022/10/04 03:24:23;;;;;;;10.10;3.15;;;12.40;99.90;;;;;;2047934;29;20035;-69
2022/10/04 03:25:41;;;;;;;8.32;2.83;;;12.40;99.90;;;;;;2047570;29;20309;-69
2022/10/04 03:26:46;;;;;;;8.02;2.88;;;12.40;99.90;;;;;;2047542;29;20049;-69
2022/10/04 03:27:49;;;;;;;8.95;2.90;;;12.40;99.90;;;;;;2047542;29;20038;-69
2022/10/04 03:28:50;;;;;;;11.45;3.30;;;12.40;99.90;;;;;;2047677;29;20031;-69
2022/10/04 03:29:52;;;;;;;9.43;3.00;;;12.40;99.90;;;;;;2047624;29;20769;-69
2022/10/04 03:30:53;;;;;;;8.88;2.80;;;12.40;99.90;;;;;;2047589;28;20035;-69
2022/10/04 03:31:56;;;;;;;5.22;2.50;;;12.40;99.90;;;;;;2047563;29;20031;-69
2022/10/04 03:32:58;;;;;;;7.10;2.97;;;12.40;99.90;;;;;;2039135;29;20126;-69
2022/10/04 03:33:59;;;;;;;12.45;3.00;;;12.50;99.90;;;;;;2039371;29;20051;-69
2022/10/04 03:35:06;;;;;;;10.25;3.70;;;12.40;99.90;;;;;;2047956;29;20147;-69
2022/10/04 03:36:15;;;;;;;8.07;3.00;;;12.40;99.90;;;;;;2047642;29;20413;-69
2022/10/04 03:37:20;;;;;;;7.75;2.60;;;12.40;99.90;;;;;;2047249;29;20028;-69
2022/10/04 03:38:22;;;;;;;11.77;3.40;;;12.40;99.90;;;;;;2047728;28;20039;-69
2022/10/04 03:39:31;;;;;;;8.52;3.05;;;12.40;99.90;;;;;;2047535;28;20035;-68
2022/10/04 03:40:32;;;;;;;8.27;3.00;;;12.40;99.90;;;;;;2047651;29;20042;-68
2022/10/04 03:41:36;;;;;;;10.93;3.30;;;12.40;99.90;;;;;;2047975;28;20413;-69
2022/10/04 03:42:38;;;;;;;8.25;3.38;;;12.40;99.90;;;;;;2047851;29;20524;-69
2022/10/04 03:43:43;;;;;;;10.80;3.20;;;12.40;99.90;;;;;;2047784;28;20035;-69
2022/10/04 03:44:46;;;;;;;8.80;2.70;;;12.40;99.90;;;;;;2047771;29;20050;-69
2022/10/04 03:45:48;;;;;;;7.57;2.78;;;12.40;99.90;;;;;;2039227;29;20046;-69
2022/10/04 03:46:49;;;;;;;8.55;3.08;;;12.40;99.90;;;;;;2039036;29;20122;-69
2022/10/04 03:47:52;;;;;;;9.70;2.95;;;12.40;99.90;;;;;;2047097;29;20039;-69
2022/10/04 03:48:54;;;;;;;7.40;2.70;;;12.40;99.90;;;;;;2039448;29;20036;-69
2022/10/04 03:49:59;;;;;;;9.13;2.80;;;12.40;99.90;;;;;;2039547;29;20036;-69
2022/10/04 03:51:03;;;;;;;8.95;3.10;;;12.40;99.90;;;;;;2047542;29;20070;-69
2022/10/04 03:52:06;;;;;;;11.10;3.20;;;12.40;99.90;;;;;;2038705;29;20055;-69
2022/10/04 03:53:12;;;;;;;10.45;3.30;;;12.40;99.90;;;;;;2031235;29;20024;-69
2022/10/04 03:54:17;;;;;;;9.40;3.15;;;12.30;99.90;;;;;;2046132;28;20524;-70
2022/10/04 03:55:18;;;;;;;10.40;3.22;;;12.40;99.90;;;;;;2047205;28;20031;-69
2022/10/04 03:56:35;;;;;;;7.10;2.80;;;12.40;99.90;;;;;;2049491;28;20102;-69
2022/10/04 03:57:36;;;;;;;9.15;2.92;;;12.40;99.90;;;;;;2056984;28;20018;-69
2022/10/04 03:58:37;;;;;;;8.02;2.92;;;12.40;99.90;;;;;;2058196;28;20050;-69
2022/10/04 03:59:38;;;;;;;12.40;3.05;;;12.40;99.90;;;;;;2058043;28;20023;-69
2022/10/04 04:00:43;;;;;;;9.73;3.15;;;12.40;99.90;;;;;;2049859;29;20031;-69
2022/10/04 04:01:59;;;;;;;8.57;3.17;;;12.40;99.90;;;;;;2041457;29;20035;-69
2022/10/04 04:03:06;;;;;;;7.85;2.88;;;12.40;99.90;;;;;;2045900;28;20406;-69
2022/10/04 04:04:17;;;;;;;8.20;2.95;;;12.40;99.90;;;;;;2058176;28;20034;-68
2022/10/04 04:05:52;;;;;;;7.30;2.60;;;12.40;99.90;;;;;;2058141;28;20077;-68
2022/10/04 04:07:04;;;;;;;13.18;3.30;;;12.40;99.90;;;;;;2044606;29;20071;-69
2022/10/04 04:08:16;;;;;;;8.05;2.83;;;12.40;99.90;;;;;;2054650;28;20039;-69
2022/10/04 04:09:24;;;;;;;8.57;3.03;;;12.40;99.90;;;;;;2049726;29;20529;-69
2022/10/04 04:10:34;;;;;;;10.23;3.10;;;12.40;99.90;;;;;;2050593;28;20023;-72
2022/10/04 04:11:36;;;;;;;9.68;3.10;;;12.40;99.90;;;;;;2049957;29;20053;-69
2022/10/04 04:12:50;;;;;;;7.22;2.70;;;12.40;99.90;;;;;;2050204;28;20031;-69
2022/10/04 04:14:23;;;;;;;8.85;3.17;;;12.40;99.90;;;;;;2050245;29;20023;-69
2022/10/04 04:15:30;;;;;;;8.15;2.88;;;12.40;99.90;;;;;;2042568;28;20066;-70
2022/10/04 04:16:31;;;;;;;12.15;3.40;;;12.50;99.90;;;;;;2049391;29;20024;-68
2022/10/04 04:17:46;;;;;;;9.35;3.10;;;12.40;99.90;;;;;;2049831;29;20685;-70
2022/10/04 04:18:49;;;;;;;8.68;3.08;;;12.40;99.90;;;;;;2050243;29;20031;-69
2022/10/04 04:19:49;;;;;;;9.63;3.00;;;12.40;99.90;;;;;;2041439;29;20501;-69
2022/10/04 04:20:57;;;;;;;8.35;3.03;;;12.40;99.90;;;;;;2049274;28;20058;-70
2022/10/04 04:21:58;;;;;;;14.23;3.90;;;12.40;99.90;;;;;;2056839;28;20035;-70
2022/10/04 04:23:14;;;;;;;10.82;3.08;;;12.40;99.90;;;;;;2057589;28;20049;-70
2022/10/04 04:24:23;;;;;;;9.95;3.50;;;12.40;99.90;;;;;;2055972;28;20034;-70
2022/10/04 04:25:26;;;;;;;8.95;3.38;;;12.40;99.90;;;;;;2050392;28;20106;-70
2022/10/04 04:26:57;;;;;;;6.30;3.05;;;12.40;99.90;;;;;;2041641;29;20409;-69
2022/10/04 04:28:10;;;;;;;8.93;3.30;;;12.40;99.90;;;;;;2045510;29;20077;-68
2022/10/04 04:29:25;;;;;;;9.55;3.33;;;12.40;99.90;;;;;;2042875;29;20644;-68
2022/10/04 04:30:25;;;;;;;8.38;2.97;;;12.40;99.90;;;;;;2045799;29;20217;-68
2022/10/04 04:31:43;;;;;;;5.22;2.80;;;12.40;99.90;;;;;;2052632;28;20532;-69
2022/10/04 04:32:52;;;;;;;12.05;3.60;;;12.40;99.90;;;;;;2053421;29;20054;-69
2022/10/04 04:34:12;;;;;;;12.10;3.20;;;12.40;99.90;;;;;;2052172;29;20040;-71
2022/10/04 04:35:30;;;;;;;12.88;3.30;;;12.40;99.90;;;;;;2051376;29;20034;-70
2022/10/04 04:36:38;;;;;;;11.95;3.17;;;12.40;99.90;;;;;;2050719;29;20078;-69
2022/10/04 04:37:39;;;;;;;12.55;3.15;;;12.40;99.90;;;;;;2050254;29;20053;-69
2022/10/04 04:39:33;;;;;;;9.25;3.33;;;12.40;99.90;;;;;;2050198;28;20039;-69
2022/10/04 04:40:18;;;;;;;9.20;3.53;;;12.40;99.90;;;;;;2049788;28;20057;-69
2022/10/04 04:41:21;;;;;;;12.40;3.60;;;12.40;99.90;;;;;;2050286;28;20570;-69
2022/10/04 04:42:33;;;;;;;12.55;3.60;;;12.40;99.90;;;;;;2050368;28;20110;-70
2022/10/04 04:43:34;;;;;;;10.85;3.30;;;12.40;99.90;;;;;;2050345;29;20090;-69
2022/10/04 04:44:48;;;;;;;9.88;3.40;;;12.40;99.90;;;;;;2041954;29;20042;-68
2022/10/04 04:45:50;;;;;;;9.73;3.22;;;12.40;99.90;;;;;;2043585;29;20090;-70
2022/10/04 04:48:06;;;;;;;18.70;3.60;;;12.40;99.90;;;;;;2129202;27;20389;-68
2022/10/04 04:49:06;;;;;;;10.18;3.58;;;12.40;99.90;;;;;;2129182;27;20034;-68
2022/10/04 04:50:24;;;;;;;12.68;3.50;;;12.40;99.90;;;;;;2128677;27;20038;-68
2022/10/04 04:51:24;;;;;;;10.27;3.38;;;12.40;99.90;;;;;;2122051;27;20032;-69
2022/10/04 04:52:28;;;;;;;9.50;3.33;;;12.40;99.90;;;;;;2128409;27;20035;-68
2022/10/04 04:53:29;;;;;;;10.65;3.47;;;12.40;99.90;;;;;;2129000;27;20095;-68
2022/10/04 04:54:30;;;;;;;6.00;3.03;;;12.40;99.90;;;;;;2128859;27;20027;-70
2022/10/04 04:55:41;;;;;;;13.88;3.85;;;12.40;99.90;;;;;;2128362;27;20042;-70
2022/10/04 04:56:43;;;;;;;10.57;3.42;;;12.40;99.90;;;;;;2128294;27;20031;-69
2022/10/04 04:57:44;;;;;;;11.52;3.22;;;12.40;99.90;;;;;;2128760;27;20038;-69
2022/10/04 04:58:47;;;;;;;9.82;3.35;;;12.40;99.90;;;;;;2129215;27;20098;-69
2022/10/04 04:59:55;;;;;;;12.10;3.30;;;12.40;99.90;;;;;;2128272;27;20030;-69
2022/10/04 05:01:27;;;;;;;8.10;3.13;;;12.40;99.90;;;;;;2128863;27;20062;-71
2022/10/04 05:02:34;;;;;;;9.40;3.38;;;12.40;99.90;;;;;;2094447;28;20183;-68
2022/10/04 05:03:35;;;;;;;9.30;3.10;;;12.40;99.90;;;;;;2121290;27;20062;-69
2022/10/04 05:04:35;;;;;;;11.27;3.80;;;12.40;99.90;;;;;;2128976;27;20031;-67
2022/10/04 05:05:36;;;;;;;11.55;3.63;;;12.40;99.90;;;;;;2119796;28;20092;-68
2022/10/04 05:06:40;;;;;;;10.80;3.25;;;12.40;99.90;;;;;;2119962;27;20511;-68
2022/10/04 05:07:43;;;;;;;8.45;3.22;;;12.40;99.90;;;;;;2128990;27;20051;-68
2022/10/04 05:08:49;;;;;;;9.88;3.50;;;12.40;99.90;;;;;;2128598;27;20031;-70
2022/10/04 05:09:49;;;;;;;8.55;3.40;;;12.40;99.90;;;;;;2128585;27;20031;-70
2022/10/04 05:11:04;;;;;;;8.45;3.25;;;12.40;99.90;;;;;;2128353;27;20507;-69
2022/10/04 05:12:11;;;;;;;8.80;3.72;;;12.40;99.90;;;;;;2128949;27;20011;-70
2022/10/04 05:13:14;;;;;;;9.77;3.63;;;12.40;99.90;;;;;;2129080;27;20027;-70
2022/10/04 05:14:16;;;;;;;12.40;3.90;;;12.30;99.90;;;;;;2129030;27;20491;-69
2022/10/04 05:15:17;;;;;;;8.68;4.20;;;12.30;99.90;;;;;;2129064;27;20015;-69
2022/10/04 05:16:31;;;;;;;9.55;3.67;;;12.30;99.90;;;;;;2128249;27;20033;-69
2022/10/04 05:17:33;;;;;;;7.85;3.55;;;12.40;99.90;;;;;;2128241;27;20038;-69
2022/10/04 05:18:34;;;;;;;10.27;3.70;;;12.40;99.90;;;;;;2129004;27;20055;-69
2022/10/04 05:19:38;;;;;;;7.85;3.25;;;12.30;99.90;;;;;;2129054;27;20488;-69
2022/10/04 05:20:47;;;;;;;9.07;3.30;;;12.40;99.90;;;;;;2128047;27;20031;-70
2022/10/04 05:21:51;;;;;;;14.05;3.60;;;12.40;99.90;;;;;;2120873;27;20572;-69
2022/10/04 05:22:52;;;;;;;9.82;3.53;;;12.40;99.90;;;;;;2128619;27;20118;-69
2022/10/04 05:23:55;;;;;;;9.98;3.60;;;12.40;99.90;;;;;;2129021;27;20088;-70
2022/10/04 05:25:01;;;;;;;10.07;3.67;;;12.30;99.90;;;;;;2129064;27;20046;-69
2022/10/04 05:26:08;;;;;;;11.05;3.80;;;12.30;99.90;;;;;;2128703;27;20019;-70
2022/10/04 05:27:24;;;;;;;8.60;3.25;;;12.30;99.90;;;;;;2128531;27;20045;-69
2022/10/04 05:28:25;;;;;;;8.55;3.30;;;12.30;99.90;;;;;;2129138;27;20030;-69
2022/10/04 05:29:31;;;;;;;12.85;3.60;;;12.30;99.90;;;;;;2128161;27;20035;-69
2022/10/04 05:31:26;;;;;;;9.43;3.70;;;12.30;99.90;;;;;;2128348;27;20034;-69
2022/10/04 05:32:36;;;;;;;10.15;3.50;;;12.30;99.90;;;;;;2093750;28;20052;-69
2022/10/04 05:33:43;;;;;;;8.00;3.15;;;12.30;99.90;;;;;;2085579;28;20029;-69
2022/10/04 05:34:49;;;;;;;13.95;3.20;;;12.30;99.90;;;;;;2113687;27;20163;-69
2022/10/04 05:36:21;;;;;;;12.20;3.78;;;12.30;99.90;;;;;;2128484;27;20019;-67
2022/10/04 05:37:46;;;;;;;8.23;3.13;;;12.30;99.90;;;;;;2128063;27;20083;-69
2022/10/04 05:39:16;;;;;;;9.30;3.47;;;12.30;99.90;;;;;;2127942;27;20418;-69
2022/10/04 05:40:28;;;;;;;11.27;3.65;;;12.30;99.90;;;;;;2109251;27;20480;-68
2022/10/04 05:41:39;;;;;;;9.25;3.25;;;12.30;99.90;;;;;;2123970;27;20469;-68
2022/10/04 05:42:44;;;;;;;5.95;3.35;;;12.20;99.90;;;;;;2128144;27;20031;-68
2022/10/04 05:43:49;;;;;;;13.25;3.78;;;12.30;99.90;;;;;;2128685;27;20062;-69
2022/10/04 05:44:53;;;;;;;13.95;3.88;;;12.30;99.90;;;;;;2127902;27;20641;-69
2022/10/04 05:46:32;;;;;;;9.25;3.65;;;12.30;99.90;;;;;;2118998;27;20034;-68
2022/10/04 05:47:33;;;;;;;7.55;3.33;;;12.30;99.90;;;;;;2119612;27;20041;-68
2022/10/04 05:48:35;;;;;;;12.35;4.60;;;12.20;99.90;;;;;;2128783;27;20070;-70
2022/10/04 05:49:45;;;;;;;12.02;4.30;;;12.20;99.90;;;;;;2128473;27;20051;-69
2022/10/04 05:50:47;;;;;;;11.13;3.72;;;12.30;99.90;;;;;;2122867;27;20066;-69
2022/10/04 05:52:05;;;;;;;10.80;4.32;;;12.30;99.90;;;;;;2127703;27;20114;-69
2022/10/04 05:53:34;;;;;;;9.75;3.70;;;12.20;99.90;;;;;;2128290;27;20544;-68
2022/10/04 05:54:35;;;;;;;8.65;3.60;;;12.20;99.90;;;;;;2128682;27;20030;-69
2022/10/04 05:56:01;;;;;;;10.00;3.75;;;12.30;99.90;;;;;;2128488;27;20599;-69